createdAt,value
2023-05-09T00:00:43.375Z,621.00
2023-05-09T00:01:43.352Z,619.00
2023-05-09T00:02:43.470Z,619.00
2023-05-09T00:03:43.317Z,617.00
2023-05-09T00:04:43.379Z,615.00
2023-05-09T00:05:43.297Z,612.00
2023-05-09T00:06:43.400Z,611.00
2023-05-09T00:07:43.355Z,609.00
2023-05-09T00:08:43.365Z,609.00
2023-05-09T00:09:43.365Z,612.00
2023-05-09T00:10:43.374Z,616.00
2023-05-09T00:11:43.388Z,613.00
2023-05-09T00:12:43.393Z,613.00
2023-05-09T00:13:43.449Z,616.00
2023-05-09T00:14:43.416Z,613.00
2023-05-09T00:15:43.432Z,610.00
2023-05-09T00:16:43.481Z,610.00
2023-05-09T00:17:43.465Z,612.00
2023-05-09T00:18:43.460Z,612.00
2023-05-09T00:19:43.485Z,615.00
2023-05-09T00:20:43.459Z,614.00
2023-05-09T00:21:43.504Z,616.00
2023-05-09T00:22:43.587Z,617.00
2023-05-09T00:23:43.514Z,617.00
2023-05-09T00:24:43.533Z,616.00
2023-05-09T00:25:43.528Z,615.00
2023-05-09T00:26:43.555Z,612.00
2023-05-09T00:27:43.601Z,608.00
2023-05-09T00:28:43.562Z,609.00
2023-05-09T00:29:43.599Z,608.00
2023-05-09T00:30:44.240Z,609.00
2023-05-09T00:31:43.674Z,604.00
2023-05-09T00:32:43.689Z,602.00
2023-05-09T00:33:43.642Z,603.00
2023-05-09T00:34:43.697Z,602.00
2023-05-09T00:35:43.691Z,603.00
2023-05-09T00:36:43.698Z,603.00
2023-05-09T00:37:43.690Z,603.00
2023-05-09T00:38:43.784Z,601.00
2023-05-09T00:39:43.733Z,600.00
2023-05-09T00:40:43.732Z,599.00
2023-05-09T00:41:43.790Z,596.00
2023-05-09T00:42:43.795Z,596.00
2023-05-09T00:43:43.756Z,593.00
2023-05-09T00:44:43.785Z,594.00
2023-05-09T00:45:43.839Z,596.00
2023-05-09T00:46:43.823Z,598.00
2023-05-09T00:47:43.871Z,599.00
2023-05-09T00:48:43.819Z,599.00
2023-05-09T00:49:43.836Z,598.00
2023-05-09T00:50:43.844Z,594.00
2023-05-09T00:51:43.861Z,595.00
2023-05-09T00:52:43.915Z,597.00
2023-05-09T00:53:43.884Z,595.00
2023-05-09T00:54:44.003Z,595.00
2023-05-09T00:55:43.945Z,597.00
2023-05-09T00:56:43.937Z,599.00
2023-05-09T00:57:43.944Z,598.00
2023-05-09T00:58:43.991Z,596.00
2023-05-09T00:59:43.968Z,595.00
2023-05-09T01:00:44.013Z,594.00
2023-05-09T01:01:44.083Z,595.00
2023-05-09T01:02:44.078Z,595.00
2023-05-09T01:03:44.134Z,596.00
2023-05-09T01:04:44.024Z,594.00
2023-05-09T01:05:44.064Z,597.00
2023-05-09T01:06:44.089Z,599.00
2023-05-09T01:07:44.101Z,599.00
2023-05-09T01:08:44.099Z,600.00
2023-05-09T01:09:44.169Z,599.00
2023-05-09T01:10:44.221Z,597.00
2023-05-09T01:11:44.334Z,597.00
2023-05-09T01:12:44.186Z,595.00
2023-05-09T01:13:44.172Z,596.00
2023-05-09T01:14:44.154Z,595.00
2023-05-09T01:15:44.168Z,595.00
2023-05-09T01:16:44.215Z,595.00
2023-05-09T01:17:44.260Z,593.00
2023-05-09T01:18:44.239Z,593.00
2023-05-09T01:19:44.246Z,593.00
2023-05-09T01:20:44.239Z,595.00
2023-05-09T01:21:44.272Z,593.00
2023-05-09T01:22:44.380Z,591.00
2023-05-09T01:23:44.360Z,590.00
2023-05-09T01:24:44.293Z,590.00
2023-05-09T01:25:44.325Z,589.00
2023-05-09T01:26:44.462Z,589.00
2023-05-09T01:27:44.339Z,588.00
2023-05-09T01:28:44.315Z,589.00
2023-05-09T01:29:44.370Z,593.00
2023-05-09T01:30:44.385Z,594.00
2023-05-09T01:31:44.462Z,592.00
2023-05-09T01:32:44.447Z,597.00
2023-05-09T01:33:44.400Z,597.00
2023-05-09T01:34:44.422Z,597.00
2023-05-09T01:35:44.403Z,598.00
2023-05-09T01:36:44.449Z,596.00
2023-05-09T01:37:44.434Z,596.00
2023-05-09T01:38:44.454Z,596.00
2023-05-09T01:39:44.433Z,595.00
2023-05-09T01:40:44.481Z,594.00
2023-05-09T01:41:44.754Z,592.00
2023-05-09T01:42:44.603Z,591.00
2023-05-09T01:43:44.606Z,591.00
2023-05-09T01:44:44.529Z,594.00
2023-05-09T01:45:44.576Z,593.00
2023-05-09T01:46:44.835Z,592.00
2023-05-09T01:47:44.610Z,590.00
2023-05-09T01:48:44.607Z,589.00
2023-05-09T01:49:44.611Z,588.00
2023-05-09T01:50:44.656Z,589.00
2023-05-09T01:51:44.614Z,588.00
2023-05-09T01:52:44.621Z,587.00
2023-05-09T01:53:44.671Z,582.00
2023-05-09T01:54:44.673Z,582.00
2023-05-09T01:55:44.693Z,582.00
2023-05-09T01:56:44.763Z,580.00
2023-05-09T01:57:44.696Z,584.00
2023-05-09T01:58:44.847Z,588.00
2023-05-09T01:59:44.808Z,589.00
2023-05-09T02:00:44.818Z,587.00
2023-05-09T02:01:45.271Z,586.00
2023-05-09T02:02:44.868Z,589.00
2023-05-09T02:03:44.808Z,590.00
2023-05-09T02:04:44.854Z,587.00
2023-05-09T02:05:44.823Z,587.00
2023-05-09T02:06:45.268Z,590.00
2023-05-09T02:07:44.800Z,588.00
2023-05-09T02:08:44.846Z,587.00
2023-05-09T02:09:44.859Z,586.00
2023-05-09T02:10:44.883Z,586.00
2023-05-09T02:11:44.882Z,586.00
2023-05-09T02:12:44.932Z,588.00
2023-05-09T02:13:44.901Z,585.00
2023-05-09T02:14:45.000Z,585.00
2023-05-09T02:15:44.933Z,584.00
2023-05-09T02:16:44.979Z,584.00
2023-05-09T02:17:45.007Z,581.00
2023-05-09T02:18:44.967Z,579.00
2023-05-09T02:19:44.995Z,578.00
2023-05-09T02:20:45.027Z,578.00
2023-05-09T02:21:45.276Z,579.00
2023-05-09T02:22:45.016Z,579.00
2023-05-09T02:23:45.023Z,580.00
2023-05-09T02:24:45.064Z,578.00
2023-05-09T02:25:45.078Z,579.00
2023-05-09T02:26:45.264Z,577.00
2023-05-09T02:27:45.090Z,577.00
2023-05-09T02:28:45.099Z,576.00
2023-05-09T02:29:45.086Z,576.00
2023-05-09T02:30:45.217Z,578.00
2023-05-09T02:31:45.169Z,575.00
2023-05-09T02:32:45.203Z,572.00
2023-05-09T02:33:45.132Z,572.00
2023-05-09T02:34:45.175Z,572.00
2023-05-09T02:35:45.159Z,569.00
2023-05-09T02:36:45.294Z,573.00
2023-05-09T02:37:45.234Z,568.00
2023-05-09T02:38:45.187Z,568.00
2023-05-09T02:39:45.215Z,569.00
2023-05-09T02:40:45.202Z,570.00
2023-05-09T02:41:45.237Z,568.00
2023-05-09T02:42:45.275Z,566.00
2023-05-09T02:43:45.253Z,564.00
2023-05-09T02:44:45.285Z,564.00
2023-05-09T02:45:45.343Z,564.00
2023-05-09T02:46:45.401Z,565.00
2023-05-09T02:47:45.817Z,564.00
2023-05-09T02:48:45.329Z,565.00
2023-05-09T02:49:45.345Z,565.00
2023-05-09T02:50:45.358Z,564.00
2023-05-09T02:51:45.396Z,559.00
2023-05-09T02:52:45.406Z,560.00
2023-05-09T02:53:45.429Z,559.00
2023-05-09T02:54:45.450Z,562.00
2023-05-09T02:55:45.409Z,562.00
2023-05-09T02:56:45.456Z,558.00
2023-05-09T02:57:45.470Z,560.00
2023-05-09T02:58:45.489Z,561.00
2023-05-09T02:59:45.454Z,562.00
2023-05-09T03:00:45.523Z,563.00
2023-05-09T03:01:45.607Z,562.00
2023-05-09T03:02:46.038Z,563.00
2023-05-09T03:03:45.694Z,557.00
2023-05-09T03:04:45.556Z,560.00
2023-05-09T03:05:45.709Z,562.00
2023-05-09T03:06:45.569Z,562.00
2023-05-09T03:07:45.574Z,562.00
2023-05-09T03:08:45.595Z,563.00
2023-05-09T03:09:45.621Z,561.00
2023-05-09T03:10:45.613Z,561.00
2023-05-09T03:11:45.616Z,559.00
2023-05-09T03:12:45.707Z,555.00
2023-05-09T03:13:45.643Z,555.00
2023-05-09T03:14:45.711Z,557.00
2023-05-09T03:15:45.713Z,556.00
2023-05-09T03:16:45.705Z,557.00
2023-05-09T03:17:45.746Z,555.00
2023-05-09T03:18:45.838Z,554.00
2023-05-09T03:19:45.770Z,556.00
2023-05-09T03:20:45.800Z,555.00
2023-05-09T03:21:45.773Z,558.00
2023-05-09T03:22:46.322Z,559.00
2023-05-09T03:23:45.811Z,558.00
2023-05-09T03:24:45.824Z,554.00
2023-05-09T03:25:45.841Z,552.00
2023-05-09T03:26:45.846Z,553.00
2023-05-09T03:27:45.885Z,552.00
2023-05-09T03:28:45.887Z,553.00
2023-05-09T03:29:45.938Z,553.00
2023-05-09T03:30:45.951Z,557.00
2023-05-09T03:31:45.995Z,557.00
2023-05-09T03:32:46.027Z,556.00
2023-05-09T03:33:45.970Z,560.00
2023-05-09T03:34:46.070Z,560.00
2023-05-09T03:35:46.015Z,557.00
2023-05-09T03:36:46.044Z,556.00
2023-05-09T03:37:46.067Z,553.00
2023-05-09T03:38:46.077Z,552.00
2023-05-09T03:39:46.085Z,553.00
2023-05-09T03:40:46.098Z,554.00
2023-05-09T03:41:46.126Z,556.00
2023-05-09T03:42:46.312Z,554.00
2023-05-09T03:43:46.200Z,556.00
2023-05-09T03:44:46.221Z,560.00
2023-05-09T03:45:46.207Z,557.00
2023-05-09T03:46:46.293Z,554.00
2023-05-09T03:47:46.325Z,553.00
2023-05-09T03:48:46.254Z,551.00
2023-05-09T03:49:46.253Z,551.00
2023-05-09T03:50:46.375Z,554.00
2023-05-09T03:51:46.318Z,552.00
2023-05-09T03:52:46.370Z,552.00
2023-05-09T03:53:46.320Z,549.00
2023-05-09T03:54:46.330Z,546.00
2023-05-09T03:55:46.324Z,546.00
2023-05-09T03:56:46.359Z,547.00
2023-05-09T03:57:46.827Z,551.00
2023-05-09T03:58:46.425Z,550.00
2023-05-09T03:59:46.436Z,553.00
2023-05-09T04:00:46.419Z,553.00
2023-05-09T04:01:46.439Z,552.00
2023-05-09T04:02:46.456Z,554.00
2023-05-09T04:03:46.486Z,551.00
2023-05-09T04:04:46.488Z,550.00
2023-05-09T04:05:46.503Z,549.00
2023-05-09T04:06:46.609Z,546.00
2023-05-09T04:07:46.827Z,542.00
2023-05-09T04:08:46.522Z,547.00
2023-05-09T04:09:46.593Z,544.00
2023-05-09T04:10:47.319Z,542.00
2023-05-09T04:11:46.622Z,541.00
2023-05-09T04:12:46.647Z,542.00
2023-05-09T04:13:46.664Z,543.00
2023-05-09T04:14:48.784Z,544.00
2023-05-09T04:15:46.682Z,544.00
2023-05-09T04:16:46.744Z,544.00
2023-05-09T04:17:46.830Z,547.00
2023-05-09T04:18:46.733Z,548.00
2023-05-09T04:19:46.785Z,548.00
2023-05-09T04:20:46.780Z,548.00
2023-05-09T04:21:46.816Z,549.00
2023-05-09T04:22:47.115Z,548.00
2023-05-09T04:23:46.858Z,550.00
2023-05-09T04:24:46.833Z,547.00
2023-05-09T04:25:46.905Z,546.00
2023-05-09T04:26:46.924Z,543.00
2023-05-09T04:27:46.889Z,540.00
2023-05-09T04:28:46.905Z,543.00
2023-05-09T04:29:46.963Z,546.00
2023-05-09T04:30:46.989Z,543.00
2023-05-09T04:31:47.111Z,542.00
2023-05-09T04:32:47.130Z,542.00
2023-05-09T04:33:47.086Z,545.00
2023-05-09T04:34:47.078Z,546.00
2023-05-09T04:35:47.091Z,548.00
2023-05-09T04:36:47.138Z,546.00
2023-05-09T04:37:47.359Z,544.00
2023-05-09T04:38:47.261Z,542.00
2023-05-09T04:39:47.169Z,542.00
2023-05-09T04:40:47.218Z,540.00
2023-05-09T04:41:47.232Z,541.00
2023-05-09T04:42:47.273Z,544.00
2023-05-09T04:43:47.283Z,544.00
2023-05-09T04:44:47.288Z,543.00
2023-05-09T04:45:47.306Z,543.00
2023-05-09T04:46:47.342Z,541.00
2023-05-09T04:47:47.914Z,542.00
2023-05-09T04:48:47.336Z,541.00
2023-05-09T04:49:47.413Z,542.00
2023-05-09T04:50:47.415Z,544.00
2023-05-09T04:51:47.490Z,544.00
2023-05-09T04:52:47.504Z,542.00
2023-05-09T04:53:47.478Z,543.00
2023-05-09T04:54:47.587Z,541.00
2023-05-09T04:55:47.604Z,540.00
2023-05-09T04:56:50.045Z,538.00
2023-05-09T04:57:47.583Z,536.00
2023-05-09T04:58:47.536Z,530.00
2023-05-09T04:59:47.572Z,531.00
2023-05-09T05:00:47.572Z,532.00
2023-05-09T05:01:47.600Z,533.00
2023-05-09T05:02:47.551Z,535.00
2023-05-09T05:03:47.534Z,537.00
2023-05-09T05:04:47.531Z,543.00
2023-05-09T05:05:47.561Z,539.00
2023-05-09T05:06:47.493Z,538.00
2023-05-09T05:07:47.505Z,537.00
2023-05-09T05:08:47.467Z,536.00
2023-05-09T05:09:47.528Z,537.00
2023-05-09T05:10:47.545Z,537.00
2023-05-09T05:11:57.805Z,537.00
2023-05-09T05:12:48.518Z,535.00
2023-05-09T05:13:47.480Z,535.00
2023-05-09T05:14:47.417Z,536.00
2023-05-09T05:15:47.479Z,537.00
2023-05-09T05:16:47.392Z,536.00
2023-05-09T05:17:47.448Z,540.00
2023-05-09T05:18:47.427Z,536.00
2023-05-09T05:19:47.392Z,535.00
2023-05-09T05:20:47.409Z,533.00
2023-05-09T05:21:47.456Z,534.00
2023-05-09T05:22:47.399Z,536.00
2023-05-09T05:23:47.349Z,537.00
2023-05-09T05:24:47.372Z,540.00
2023-05-09T05:25:47.418Z,539.00
2023-05-09T05:26:47.478Z,537.00
2023-05-09T05:27:47.367Z,537.00
2023-05-09T05:28:47.342Z,533.00
2023-05-09T05:29:47.314Z,533.00
2023-05-09T05:30:47.311Z,532.00
2023-05-09T05:31:47.456Z,532.00
2023-05-09T05:32:47.387Z,527.00
2023-05-09T05:33:47.366Z,527.00
2023-05-09T05:34:47.372Z,526.00
2023-05-09T05:35:47.425Z,528.00
2023-05-09T05:36:47.507Z,527.00
2023-05-09T05:37:49.018Z,527.00
2023-05-09T05:38:47.502Z,528.00
2023-05-09T05:39:47.501Z,531.00
2023-05-09T05:40:47.549Z,533.00
2023-05-09T05:41:47.585Z,534.00
2023-05-09T05:42:47.948Z,530.00
2023-05-09T05:43:47.664Z,530.00
2023-05-09T05:44:47.676Z,531.00
2023-05-09T05:45:47.721Z,531.00
2023-05-09T05:46:48.711Z,532.00
2023-05-09T05:47:47.769Z,532.00
2023-05-09T05:48:47.693Z,530.00
2023-05-09T05:49:47.743Z,529.00
2023-05-09T05:50:47.794Z,531.00
2023-05-09T05:51:47.792Z,531.00
2023-05-09T05:52:47.821Z,531.00
2023-05-09T05:53:47.825Z,534.00
2023-05-09T05:54:47.854Z,534.00
2023-05-09T05:55:47.885Z,532.00
2023-05-09T05:56:47.928Z,531.00
2023-05-09T05:57:48.347Z,530.00
2023-05-09T05:58:48.025Z,528.00
2023-05-09T05:59:47.978Z,528.00
2023-05-09T06:00:47.988Z,528.00
2023-05-09T06:01:48.041Z,532.00
2023-05-09T06:02:48.428Z,577.00
2023-05-09T06:03:48.173Z,594.00
2023-05-09T06:04:48.085Z,640.00
2023-05-09T06:05:48.051Z,652.00
2023-05-09T06:06:48.061Z,663.00
2023-05-09T06:07:48.071Z,678.00
2023-05-09T06:08:48.079Z,684.00
2023-05-09T06:09:48.062Z,691.00
2023-05-09T06:10:48.126Z,698.00
2023-05-09T06:11:48.125Z,703.00
2023-05-09T06:12:48.106Z,713.00
2023-05-09T06:13:48.108Z,757.00
2023-05-09T06:14:48.176Z,755.00
2023-05-09T06:15:48.087Z,769.00
2023-05-09T06:16:48.146Z,772.00
2023-05-09T06:17:48.115Z,781.00
2023-05-09T06:18:48.074Z,787.00
2023-05-09T06:19:48.846Z,791.00
2023-05-09T06:20:48.083Z,794.00
2023-05-09T06:21:48.091Z,838.00
2023-05-09T06:22:48.151Z,838.00
2023-05-09T06:24:05.955Z,849.00
2023-05-09T06:24:49.131Z,860.00
2023-05-09T06:25:48.113Z,869.00
2023-05-09T06:26:48.123Z,879.00
2023-05-09T06:27:48.082Z,891.00
2023-05-09T06:28:48.108Z,930.00
2023-05-09T06:29:48.146Z,949.00
2023-05-09T06:30:48.170Z,961.00
2023-05-09T06:31:48.156Z,964.00
2023-05-09T06:32:48.179Z,993.00
2023-05-09T06:33:48.377Z,1005.00
2023-05-09T06:34:48.205Z,1012.00
2023-05-09T06:35:48.234Z,1019.00
2023-05-09T06:36:48.260Z,1027.00
2023-05-09T06:37:49.037Z,1038.00
2023-05-09T06:38:48.961Z,1045.00
2023-05-09T06:39:48.427Z,1053.00
2023-05-09T06:40:48.487Z,1065.00
2023-05-09T06:41:48.536Z,1074.00
2023-05-09T06:42:48.544Z,1081.00
2023-05-09T06:43:49.863Z,1092.00
2023-05-09T06:44:48.651Z,1106.00
2023-05-09T06:45:48.635Z,1124.00
2023-05-09T06:46:48.703Z,1130.00
2023-05-09T06:47:48.730Z,1152.00
2023-05-09T06:48:48.735Z,1167.00
2023-05-09T06:49:48.802Z,1181.00
2023-05-09T06:50:48.799Z,1189.00
2023-05-09T06:51:48.845Z,1210.00
2023-05-09T06:52:48.920Z,1206.00
2023-05-09T06:53:48.948Z,1212.00
2023-05-09T06:54:49.033Z,1216.00
2023-05-09T06:55:48.984Z,1217.00
2023-05-09T06:56:49.021Z,1224.00
2023-05-09T06:57:49.022Z,1230.00
2023-05-09T06:58:49.030Z,1237.00
2023-05-09T06:59:49.072Z,1239.00
2023-05-09T07:00:49.104Z,1262.00
2023-05-09T07:01:49.223Z,1270.00
2023-05-09T07:02:49.269Z,1274.00
2023-05-09T07:03:49.148Z,1277.00
2023-05-09T07:04:49.223Z,1288.00
2023-05-09T07:05:49.209Z,1293.00
2023-05-09T07:06:49.278Z,1305.00
2023-05-09T07:07:49.289Z,1310.00
2023-05-09T07:08:49.263Z,1322.00
2023-05-09T07:09:52.832Z,1348.00
2023-05-09T07:10:50.273Z,1393.00
2023-05-09T07:11:49.254Z,1411.00
2023-05-09T07:12:49.287Z,1448.00
2023-05-09T07:13:49.362Z,1441.00
2023-05-09T07:14:49.269Z,1442.00
2023-05-09T07:15:49.261Z,1450.00
2023-05-09T07:16:49.251Z,1452.00
2023-05-09T07:17:49.263Z,1452.00
2023-05-09T07:18:49.467Z,1459.00
2023-05-09T07:19:49.202Z,1474.00
2023-05-09T07:20:49.183Z,1484.00
2023-05-09T07:21:49.171Z,1494.00
2023-05-09T07:22:49.237Z,1498.00
2023-05-09T07:23:49.190Z,1493.00
2023-05-09T07:24:49.184Z,1492.00
2023-05-09T07:25:49.184Z,1501.00
2023-05-09T07:26:49.170Z,1514.00
2023-05-09T07:27:49.165Z,1523.00
2023-05-09T07:28:49.427Z,1526.00
2023-05-09T07:29:49.181Z,1558.00
2023-05-09T07:30:49.169Z,1562.00
2023-05-09T07:31:49.207Z,1570.00
2023-05-09T07:32:49.149Z,1566.00
2023-05-09T07:33:49.094Z,1571.00
2023-05-09T07:34:49.180Z,1582.00
2023-05-09T07:35:49.121Z,1596.00
2023-05-09T07:36:49.079Z,1589.00
2023-05-09T07:37:49.128Z,1585.00
2023-05-09T07:38:49.063Z,1580.00
2023-05-09T07:39:49.081Z,1576.00
2023-05-09T07:40:49.074Z,1581.00
2023-05-09T07:41:49.074Z,1580.00
2023-05-09T07:42:49.052Z,1575.00
2023-05-09T07:43:49.036Z,1582.00
2023-05-09T07:44:49.021Z,1581.00
2023-05-09T07:45:49.084Z,1582.00
2023-05-09T07:46:49.041Z,1578.00
2023-05-09T07:47:49.072Z,1362.00
2023-05-09T07:48:49.051Z,1243.00
2023-05-09T07:49:49.008Z,1220.00
2023-05-09T07:50:49.061Z,1221.00
2023-05-09T07:51:48.960Z,1224.00
2023-05-09T07:52:49.863Z,1216.00
2023-05-09T07:53:48.943Z,1215.00
2023-05-09T07:54:48.969Z,1229.00
2023-05-09T07:55:48.965Z,1229.00
2023-05-09T07:56:48.983Z,1225.00
2023-05-09T07:57:48.992Z,1215.00
2023-05-09T07:58:49.059Z,1214.00
2023-05-09T07:59:49.059Z,1209.00
2023-05-09T08:00:49.078Z,1214.00
2023-05-09T08:01:49.134Z,1222.00
2023-05-09T08:02:49.213Z,1220.00
2023-05-09T08:03:49.508Z,1140.00
2023-05-09T08:04:49.265Z,1131.00
2023-05-09T08:05:49.193Z,1149.00
2023-05-09T08:06:49.365Z,1158.00
2023-05-09T08:07:49.262Z,1156.00
2023-05-09T08:08:49.302Z,1158.00
2023-05-09T08:09:49.331Z,1156.00
2023-05-09T08:10:49.409Z,1159.00
2023-05-09T08:11:49.347Z,1160.00
2023-05-09T08:12:49.409Z,1153.00
2023-05-09T08:13:49.922Z,1148.00
2023-05-09T08:14:49.390Z,1153.00
2023-05-09T08:15:49.464Z,1151.00
2023-05-09T08:16:49.482Z,1134.00
2023-05-09T08:17:49.564Z,1129.00
2023-05-09T08:18:49.915Z,1123.00
2023-05-09T08:19:49.538Z,1117.00
2023-05-09T08:20:49.553Z,1108.00
2023-05-09T08:21:49.628Z,1112.00
2023-05-09T08:22:49.766Z,1112.00
2023-05-09T08:23:49.630Z,1107.00
2023-05-09T08:24:49.668Z,1102.00
2023-05-09T08:25:49.673Z,1094.00
2023-05-09T08:26:49.680Z,1097.00
2023-05-09T08:27:51.009Z,1079.00
2023-05-09T08:28:50.393Z,1092.00
2023-05-09T08:29:49.903Z,1092.00
2023-05-09T08:30:49.945Z,1097.00
2023-05-09T08:31:49.988Z,1157.00
2023-05-09T08:32:50.022Z,1145.00
2023-05-09T08:33:50.028Z,1134.00
2023-05-09T08:34:49.965Z,1059.00
2023-05-09T08:35:49.981Z,1068.00
2023-05-09T08:36:50.040Z,1069.00
2023-05-09T08:37:50.039Z,1077.00
2023-05-09T08:38:50.496Z,1053.00
2023-05-09T08:39:50.098Z,1063.00
2023-05-09T08:40:50.116Z,1071.00
2023-05-09T08:41:50.139Z,1073.00
2023-05-09T08:42:50.145Z,1073.00
2023-05-09T08:43:50.181Z,1060.00
2023-05-09T08:44:50.186Z,1040.00
2023-05-09T08:45:50.205Z,1031.00
2023-05-09T08:46:50.308Z,1024.00
2023-05-09T08:47:50.297Z,1024.00
2023-05-09T08:48:50.381Z,1023.00
2023-05-09T08:49:50.333Z,1010.00
2023-05-09T08:50:50.336Z,998.00
2023-05-09T08:51:50.330Z,995.00
2023-05-09T08:52:50.389Z,995.00
2023-05-09T08:53:50.423Z,986.00
2023-05-09T08:54:50.537Z,974.00
2023-05-09T08:55:50.434Z,954.00
2023-05-09T08:56:50.469Z,947.00
2023-05-09T08:57:50.512Z,940.00
2023-05-09T08:58:50.525Z,935.00
2023-05-09T08:59:50.556Z,915.00
2023-05-09T09:00:50.575Z,919.00
2023-05-09T09:01:50.684Z,926.00
2023-05-09T09:02:50.700Z,859.00
2023-05-09T09:03:50.923Z,862.00
2023-05-09T09:04:50.783Z,867.00
2023-05-09T09:05:50.789Z,866.00
2023-05-09T09:06:50.857Z,869.00
2023-05-09T09:07:50.865Z,893.00
2023-05-09T09:08:50.952Z,903.00
2023-05-09T09:09:50.913Z,910.00
2023-05-09T09:10:51.049Z,918.00
2023-05-09T09:11:51.018Z,919.00
2023-05-09T09:12:51.078Z,918.00
2023-05-09T09:13:51.059Z,915.00
2023-05-09T09:14:51.102Z,918.00
2023-05-09T09:15:51.108Z,917.00
2023-05-09T09:16:51.241Z,955.00
2023-05-09T09:17:51.186Z,946.00
2023-05-09T09:18:51.426Z,945.00
2023-05-09T09:19:51.254Z,943.00
2023-05-09T09:20:51.290Z,946.00
2023-05-09T09:21:51.278Z,949.00
2023-05-09T09:22:51.263Z,954.00
2023-05-09T09:23:51.264Z,960.00
2023-05-09T09:24:51.334Z,973.00
2023-05-09T09:25:51.302Z,975.00
2023-05-09T09:26:51.381Z,978.00
2023-05-09T09:27:51.310Z,994.00
2023-05-09T09:28:51.295Z,995.00
2023-05-09T09:29:51.409Z,998.00
2023-05-09T09:30:51.319Z,1004.00
2023-05-09T09:31:51.334Z,1010.00
2023-05-09T09:32:51.348Z,1058.00
2023-05-09T09:33:51.299Z,1043.00
2023-05-09T09:34:51.452Z,1039.00
2023-05-09T09:35:51.361Z,1051.00
2023-05-09T09:36:51.404Z,1058.00
2023-05-09T09:37:51.371Z,1064.00
2023-05-09T09:38:51.367Z,1072.00
2023-05-09T09:39:51.397Z,1078.00
2023-05-09T09:40:51.430Z,1077.00
2023-05-09T09:41:51.531Z,1078.00
2023-05-09T09:42:51.549Z,1084.00
2023-05-09T09:43:51.615Z,1094.00
2023-05-09T09:44:51.925Z,1104.00
2023-05-09T09:45:51.697Z,1114.00
2023-05-09T09:46:51.582Z,1157.00
2023-05-09T09:47:51.639Z,1173.00
2023-05-09T09:48:51.601Z,1167.00
2023-05-09T09:49:51.940Z,1153.00
2023-05-09T09:50:51.609Z,1178.00
2023-05-09T09:51:51.606Z,1202.00
2023-05-09T09:52:51.604Z,1241.00
2023-05-09T09:53:51.687Z,1235.00
2023-05-09T09:54:51.942Z,1232.00
2023-05-09T09:55:51.697Z,1240.00
2023-05-09T09:56:51.769Z,1241.00
2023-05-09T09:57:51.806Z,1238.00
2023-05-09T09:58:51.953Z,1257.00
2023-05-09T09:59:51.919Z,1266.00
2023-05-09T10:00:51.944Z,1264.00
2023-05-09T10:01:52.049Z,1266.00
2023-05-09T10:02:52.148Z,1268.00
2023-05-09T10:03:52.102Z,1262.00
2023-05-09T10:04:52.104Z,1259.00
2023-05-09T10:05:52.096Z,1254.00
2023-05-09T10:06:52.105Z,1214.00
2023-05-09T10:07:52.103Z,1186.00
2023-05-09T10:08:52.111Z,1212.00
2023-05-09T10:09:52.118Z,1195.00
2023-05-09T10:10:52.145Z,1197.00
2023-05-09T10:11:52.113Z,1200.00
2023-05-09T10:12:52.124Z,1201.00
2023-05-09T10:13:52.121Z,1203.00
2023-05-09T10:14:52.513Z,1215.00
2023-05-09T10:15:53.981Z,1213.00
2023-05-09T10:16:52.238Z,1210.00
2023-05-09T10:17:52.282Z,1202.00
2023-05-09T10:18:52.250Z,1210.00
2023-05-09T10:19:52.433Z,1209.00
2023-05-09T10:20:52.285Z,1206.00
2023-05-09T10:21:52.274Z,1204.00
2023-05-09T10:22:52.311Z,1211.00
2023-05-09T10:23:52.438Z,1229.00
2023-05-09T10:24:52.947Z,1238.00
2023-05-09T10:25:52.534Z,1250.00
2023-05-09T10:26:52.556Z,1255.00
2023-05-09T10:27:52.633Z,1266.00
2023-05-09T10:28:52.676Z,1262.00
2023-05-09T10:29:52.744Z,1260.00
2023-05-09T10:30:52.902Z,1282.00
2023-05-09T10:31:52.944Z,1290.00
2023-05-09T10:32:52.981Z,1294.00
2023-05-09T10:33:52.994Z,1300.00
2023-05-09T10:34:53.017Z,1298.00
2023-05-09T10:35:53.103Z,1301.00
2023-05-09T10:36:53.136Z,1307.00
2023-05-09T10:37:53.156Z,1309.00
2023-05-09T10:38:53.249Z,1315.00
2023-05-09T10:39:53.323Z,1318.00
2023-05-09T10:40:53.366Z,1325.00
2023-05-09T10:41:53.393Z,1332.00
2023-05-09T10:42:53.495Z,1355.00
2023-05-09T10:43:53.553Z,1356.00
2023-05-09T10:44:53.947Z,1329.00
2023-05-09T10:45:53.620Z,1331.00
2023-05-09T10:46:53.850Z,1324.00
2023-05-09T10:47:53.845Z,1327.00
2023-05-09T10:48:53.808Z,1339.00
2023-05-09T10:49:53.891Z,1379.00
2023-05-09T10:50:53.961Z,1379.00
2023-05-09T10:51:54.028Z,1377.00
2023-05-09T10:52:54.057Z,1384.00
2023-05-09T10:53:54.136Z,1391.00
2023-05-09T10:54:54.452Z,1383.00
2023-05-09T10:55:54.195Z,1378.00
2023-05-09T10:56:54.278Z,1377.00
2023-05-09T10:57:54.369Z,1371.00
2023-05-09T10:58:54.395Z,1367.00
2023-05-09T10:59:54.968Z,1370.00
2023-05-09T11:00:55.368Z,1372.00
2023-05-09T11:01:54.746Z,1394.00
2023-05-09T11:02:54.963Z,1407.00
2023-05-09T11:03:54.834Z,1407.00
2023-05-09T11:04:54.947Z,1411.00
2023-05-09T11:05:54.937Z,1402.00
2023-05-09T11:06:57.159Z,1386.00
2023-05-09T11:07:54.937Z,1376.00
2023-05-09T11:08:54.950Z,1381.00
2023-05-09T11:09:54.940Z,1384.00
2023-05-09T11:10:55.504Z,1328.00
2023-05-09T11:11:54.907Z,1327.00
2023-05-09T11:12:56.822Z,1254.00
2023-05-09T11:13:54.918Z,1247.00
2023-05-09T11:14:54.986Z,1252.00
2023-05-09T11:15:54.872Z,1252.00
2023-05-09T11:16:54.862Z,1247.00
2023-05-09T11:17:54.917Z,1243.00
2023-05-09T11:18:54.943Z,1225.00
2023-05-09T11:19:54.970Z,1215.00
2023-05-09T11:20:54.846Z,1211.00
2023-05-09T11:21:54.842Z,1199.00
2023-05-09T11:22:54.831Z,1175.00
2023-05-09T11:23:55.343Z,1130.00
2023-05-09T11:24:54.845Z,1118.00
2023-05-09T11:25:54.858Z,1124.00
2023-05-09T11:26:54.797Z,1156.00
2023-05-09T11:27:54.826Z,1160.00
2023-05-09T11:28:54.769Z,1165.00
2023-05-09T11:29:54.994Z,1164.00
2023-05-09T11:30:54.965Z,1163.00
2023-05-09T11:31:54.885Z,1162.00
2023-05-09T11:32:54.792Z,1162.00
2023-05-09T11:33:54.777Z,1171.00
2023-05-09T11:34:54.916Z,1175.00
2023-05-09T11:35:54.762Z,1177.00
2023-05-09T11:36:55.705Z,1174.00
2023-05-09T11:37:54.729Z,1176.00
2023-05-09T11:38:54.737Z,1178.00
2023-05-09T11:39:54.955Z,1176.00
2023-05-09T11:40:54.691Z,1178.00
2023-05-09T11:41:54.681Z,1174.00
2023-05-09T11:42:57.751Z,1170.00
2023-05-09T11:43:54.665Z,1168.00
2023-05-09T11:44:54.984Z,1169.00
2023-05-09T11:45:54.761Z,1166.00
2023-05-09T11:46:54.697Z,1166.00
2023-05-09T11:47:54.778Z,1166.00
2023-05-09T11:48:54.641Z,1168.00
2023-05-09T11:49:54.653Z,1175.00
2023-05-09T11:50:54.750Z,1172.00
2023-05-09T11:51:54.634Z,1170.00
2023-05-09T11:52:54.629Z,1169.00
2023-05-09T11:53:54.641Z,1165.00
2023-05-09T11:54:54.993Z,1159.00
2023-05-09T11:55:54.578Z,1155.00
2023-05-09T11:56:54.579Z,1153.00
2023-05-09T11:57:54.693Z,1151.00
2023-05-09T11:58:54.610Z,1148.00
2023-05-09T11:59:55.011Z,1151.00
2023-05-09T12:00:54.577Z,1149.00
2023-05-09T12:01:54.608Z,1148.00
2023-05-09T12:02:54.600Z,1147.00
2023-05-09T12:03:54.618Z,1140.00
2023-05-09T12:04:54.941Z,1138.00
2023-05-09T12:05:54.524Z,1140.00
2023-05-09T12:06:54.601Z,1147.00
2023-05-09T12:07:54.528Z,1146.00
2023-05-09T12:08:54.529Z,1142.00
2023-05-09T12:09:54.974Z,1138.00
2023-05-09T12:10:54.498Z,1133.00
2023-05-09T12:11:54.493Z,1132.00
2023-05-09T12:12:54.476Z,1130.00
2023-05-09T12:13:54.493Z,1131.00
2023-05-09T12:14:54.465Z,1129.00
2023-05-09T12:15:54.455Z,1131.00
2023-05-09T12:16:54.426Z,1130.00
2023-05-09T12:17:54.510Z,1129.00
2023-05-09T12:18:54.434Z,1122.00